createdAt,value
2023-09-17T00:02:30.201Z,97720.36
2023-09-17T00:05:06.421Z,97721.06
2023-09-17T00:07:44.088Z,97719.33
2023-09-17T00:10:19.247Z,97716.45
2023-09-17T00:12:55.510Z,97713.76
2023-09-17T00:15:32.435Z,97711.00
2023-09-17T00:18:06.198Z,97711.73
2023-09-17T00:20:41.135Z,97706.48
2023-09-17T00:23:14.952Z,97708.59
2023-09-17T00:25:51.750Z,97707.71
2023-09-17T00:28:25.178Z,97712.14
2023-09-17T00:31:08.972Z,97711.73
2023-09-17T00:33:46.289Z,97709.73
2023-09-17T00:36:44.906Z,97707.00
2023-09-17T00:39:20.049Z,97707.00
2023-09-17T00:41:55.738Z,97705.21
2023-09-17T00:44:30.757Z,97705.60
2023-09-17T00:47:06.559Z,97703.25
2023-09-17T00:49:40.803Z,97698.55
2023-09-17T00:52:23.863Z,97697.45
2023-09-17T00:55:01.445Z,97696.98
2023-09-17T00:57:37.939Z,97697.39
2023-09-17T01:00:16.562Z,97693.73
2023-09-17T01:02:51.147Z,97693.02
2023-09-17T01:05:27.766Z,97689.09
2023-09-17T01:08:02.490Z,97688.56
2023-09-17T01:10:36.177Z,97686.63
2023-09-17T01:13:10.278Z,97684.39
2023-09-17T01:15:46.984Z,97684.95
2023-09-17T01:18:23.857Z,97689.58
2023-09-17T01:21:02.868Z,97692.77
2023-09-17T01:23:43.915Z,97693.14
2023-09-17T01:26:19.951Z,97699.06
2023-09-17T01:28:55.773Z,97700.60
2023-09-17T01:31:29.719Z,97704.77
2023-09-17T01:34:04.612Z,97707.95
2023-09-17T01:36:43.995Z,97706.71
2023-09-17T01:39:24.816Z,97708.86
2023-09-17T01:42:00.182Z,97712.10
2023-09-17T01:44:36.846Z,97708.21
2023-09-17T01:47:12.416Z,97703.08
2023-09-17T01:49:48.455Z,97699.30
2023-09-17T01:52:26.978Z,97701.41
2023-09-17T01:55:01.474Z,97701.18
2023-09-17T01:57:35.480Z,97702.70
2023-09-17T02:00:16.550Z,97704.69
2023-09-17T02:02:51.598Z,97699.42
2023-09-17T02:05:27.227Z,97693.64
2023-09-17T02:08:01.885Z,97687.55
2023-09-17T02:10:36.445Z,97681.66
2023-09-17T02:13:17.284Z,97686.39
2023-09-17T02:15:52.700Z,97682.73
2023-09-17T02:18:28.394Z,97683.52
2023-09-17T02:21:02.826Z,97678.25
2023-09-17T02:23:38.104Z,97681.14
2023-09-17T02:26:12.780Z,97683.86
2023-09-17T02:28:46.703Z,97687.20
2023-09-17T02:31:20.580Z,97689.27
2023-09-17T02:33:54.565Z,97691.27
2023-09-17T02:36:29.923Z,97694.02
2023-09-17T02:39:07.906Z,97692.69
2023-09-17T02:41:42.475Z,97692.71
2023-09-17T02:44:16.204Z,97693.86
2023-09-17T02:46:50.175Z,97695.54
2023-09-17T02:49:25.953Z,97698.06
2023-09-17T02:52:00.210Z,97700.58
2023-09-17T02:54:34.078Z,97697.94
2023-09-17T02:57:09.335Z,97701.88
2023-09-17T02:59:44.939Z,97701.27
2023-09-17T03:02:20.215Z,97701.98
2023-09-17T03:04:58.478Z,97707.72
2023-09-17T03:07:34.141Z,97704.15
2023-09-17T03:10:13.475Z,97702.17
2023-09-17T03:12:52.354Z,97705.20
2023-09-17T03:15:28.013Z,97703.69
2023-09-17T03:18:02.697Z,97704.35
2023-09-17T03:20:39.490Z,97703.11
2023-09-17T03:23:14.115Z,97699.52
2023-09-17T03:25:49.589Z,97695.98
2023-09-17T03:28:24.743Z,97693.26
2023-09-17T03:31:00.097Z,97692.68
2023-09-17T03:33:34.060Z,97687.39
2023-09-17T03:36:09.404Z,97680.52
2023-09-17T03:38:43.413Z,97678.30
2023-09-17T03:41:17.091Z,97675.29
2023-09-17T03:43:57.988Z,97679.17
2023-09-17T03:46:34.773Z,97682.95
2023-09-17T03:49:11.375Z,97690.28
2023-09-17T03:51:47.242Z,97691.11
2023-09-17T03:54:24.654Z,97690.88
2023-09-17T03:57:16.076Z,97691.52
2023-09-17T04:00:08.094Z,97694.96
2023-09-17T04:02:48.643Z,97692.80
2023-09-17T04:05:23.978Z,97692.79
2023-09-17T04:07:57.781Z,97695.34
2023-09-17T04:10:31.785Z,97698.05
2023-09-17T04:13:05.507Z,97698.81
2023-09-17T04:15:39.713Z,97699.55
2023-09-17T04:18:14.856Z,97700.56
2023-09-17T04:20:49.643Z,97704.55
2023-09-17T04:23:24.224Z,97699.61
2023-09-17T04:25:58.595Z,97701.36
2023-09-17T04:28:32.614Z,97698.73
2023-09-17T04:31:06.330Z,97703.35
2023-09-17T04:33:39.973Z,97702.33
2023-09-17T04:36:13.609Z,97700.66
2023-09-17T04:38:47.622Z,97702.11
2023-09-17T04:41:21.588Z,97705.05
2023-09-17T04:43:55.435Z,97706.69
2023-09-17T04:46:33.478Z,97705.83
2023-09-17T04:49:07.413Z,97711.50
2023-09-17T04:51:42.056Z,97715.57
2023-09-17T04:54:16.787Z,97714.98
2023-09-17T04:56:53.705Z,97711.99
2023-09-17T04:59:31.599Z,97714.34
2023-09-17T05:02:05.540Z,97715.37
2023-09-17T05:04:39.446Z,97715.41
2023-09-17T05:07:14.089Z,97712.45
2023-09-17T05:09:47.776Z,97716.27
2023-09-17T05:12:21.771Z,97721.72
2023-09-17T05:14:55.383Z,97719.34
2023-09-17T05:17:29.597Z,97723.80
2023-09-17T05:20:04.303Z,97725.41
2023-09-17T05:22:38.901Z,97730.11
2023-09-17T05:25:14.417Z,97727.20
2023-09-17T05:27:50.258Z,97729.52
2023-09-17T05:30:25.226Z,97731.08
2023-09-17T05:32:59.359Z,97732.56
2023-09-17T05:35:33.811Z,97732.66
2023-09-17T05:38:09.350Z,97733.79
2023-09-17T05:40:43.409Z,97735.39
2023-09-17T05:43:17.069Z,97740.46
2023-09-17T05:45:58.382Z,97745.34
2023-09-17T05:48:45.529Z,97746.94
2023-09-17T05:51:18.935Z,97749.33
2023-09-17T05:53:53.216Z,97751.29
2023-09-17T05:56:27.207Z,97752.49
2023-09-17T05:59:01.897Z,97751.80
2023-09-17T06:01:36.049Z,97751.03
2023-09-17T06:04:10.693Z,97749.42
2023-09-17T06:06:44.554Z,97752.91
2023-09-17T06:09:18.538Z,97756.44
2023-09-17T06:11:52.924Z,97761.11
2023-09-17T06:14:26.978Z,97760.98
2023-09-17T06:17:00.833Z,97758.46
2023-09-17T06:19:35.412Z,97759.95
2023-09-17T06:22:09.437Z,97754.53
2023-09-17T06:24:43.727Z,97760.40
2023-09-17T06:27:17.849Z,97765.10
2023-09-17T06:29:51.974Z,97763.48
2023-09-17T06:32:27.901Z,97764.61
2023-09-17T06:35:02.881Z,97764.62
2023-09-17T06:37:37.050Z,97763.71
2023-09-17T06:40:16.109Z,97764.60
2023-09-17T06:42:51.774Z,97764.58
2023-09-17T06:45:26.235Z,97764.29
2023-09-17T06:48:00.302Z,97768.42
2023-09-17T06:50:34.695Z,97768.39
2023-09-17T06:53:08.780Z,97771.92
2023-09-17T06:55:45.635Z,97777.21
2023-09-17T06:58:20.251Z,97777.17
2023-09-17T07:00:55.163Z,97776.39
2023-09-17T07:03:28.641Z,97779.73
2023-09-17T07:06:02.395Z,97784.64
2023-09-17T07:08:36.935Z,97781.30
2023-09-17T07:11:11.062Z,97782.63
2023-09-17T07:13:46.137Z,97778.79
2023-09-17T07:16:21.566Z,97780.58
2023-09-17T07:18:56.227Z,97783.80
2023-09-17T07:21:29.911Z,97786.39
2023-09-17T07:24:03.981Z,97788.70
2023-09-17T07:26:39.070Z,97791.33
2023-09-17T07:29:12.371Z,97788.01
2023-09-17T07:31:49.271Z,97789.85
2023-09-17T07:34:23.544Z,97791.71
2023-09-17T07:37:01.850Z,97792.56
2023-09-17T07:39:35.686Z,97791.31
2023-09-17T07:42:10.872Z,97794.92
2023-09-17T07:44:46.428Z,97798.94
2023-09-17T07:47:21.021Z,97794.80
2023-09-17T07:49:54.855Z,97796.31
2023-09-17T07:52:28.662Z,97795.70
2023-09-17T07:55:02.133Z,97798.29
2023-09-17T07:57:35.933Z,97796.58
2023-09-17T08:00:11.571Z,97797.96
2023-09-17T08:02:52.894Z,97800.35
2023-09-17T08:05:45.909Z,97798.40
2023-09-17T08:08:43.418Z,97797.83
2023-09-17T08:11:25.980Z,97796.84
2023-09-17T08:14:03.397Z,97799.70
2023-09-17T08:17:02.214Z,97796.81
2023-09-17T08:19:37.901Z,97797.09
2023-09-17T08:22:12.062Z,97798.54
2023-09-17T08:24:49.647Z,97799.00
2023-09-17T08:27:24.617Z,97797.05
2023-09-17T08:29:59.442Z,97800.06
2023-09-17T08:32:37.812Z,97799.05
2023-09-17T08:35:13.345Z,97802.00
2023-09-17T08:37:48.031Z,97802.63
2023-09-17T08:40:26.072Z,97802.08
2023-09-17T08:43:02.030Z,97800.34
2023-09-17T08:45:37.059Z,97802.34
2023-09-17T08:48:12.223Z,97804.73
2023-09-17T08:50:49.033Z,97806.63
2023-09-17T08:53:32.099Z,97803.38
2023-09-17T08:56:07.469Z,97806.73
2023-09-17T08:58:48.912Z,97808.21
2023-09-17T09:01:26.533Z,97804.63
2023-09-17T09:04:02.087Z,97807.05
2023-09-17T09:06:37.397Z,97799.81
2023-09-17T09:09:11.805Z,97796.95
2023-09-17T09:11:46.040Z,97798.45
2023-09-17T09:14:21.211Z,97800.88
2023-09-17T09:17:01.931Z,97797.05
2023-09-17T09:19:40.302Z,97798.39
2023-09-17T09:22:14.169Z,97798.72
2023-09-17T09:24:51.744Z,97800.14
2023-09-17T09:27:26.542Z,97797.23
2023-09-17T09:30:02.610Z,97797.70
2023-09-17T09:32:36.629Z,97796.80
2023-09-17T09:35:11.474Z,97794.25
2023-09-17T09:37:46.203Z,97793.20
2023-09-17T09:40:21.025Z,97790.02
2023-09-17T09:42:55.086Z,97789.38
2023-09-17T09:45:29.342Z,97787.55
2023-09-17T09:48:03.873Z,97789.45
2023-09-17T09:50:38.376Z,97787.52
2023-09-17T09:53:12.718Z,97782.70
2023-09-17T09:55:48.710Z,97784.98
2023-09-17T09:58:23.700Z,97786.19
2023-09-17T10:01:01.054Z,97782.39
2023-09-17T10:03:50.752Z,97785.10
2023-09-17T10:06:31.588Z,97779.09
2023-09-17T10:09:11.273Z,97775.67
2023-09-17T10:11:45.568Z,97778.98
2023-09-17T10:14:19.771Z,97782.94
2023-09-17T10:16:57.710Z,97782.48
2023-09-17T10:19:36.225Z,97784.25
2023-09-17T10:22:15.026Z,97784.04
2023-09-17T10:25:01.388Z,97773.13
2023-09-17T10:27:45.983Z,97772.04
2023-09-17T10:30:22.496Z,97779.91
2023-09-17T10:32:57.352Z,97783.71
2023-09-17T10:35:39.228Z,97784.27
2023-09-17T10:38:15.995Z,97784.55
2023-09-17T10:40:53.743Z,97783.34
2023-09-17T10:43:29.463Z,97785.68
2023-09-17T10:46:07.590Z,97785.18
2023-09-17T10:48:45.792Z,97780.27
2023-09-17T10:51:20.863Z,97778.04
2023-09-17T10:53:54.355Z,97778.48
2023-09-17T10:56:32.389Z,97775.50
2023-09-17T10:59:15.018Z,97773.75
2023-09-17T11:01:53.215Z,97775.05
2023-09-17T11:04:29.571Z,97769.25
2023-09-17T11:07:08.841Z,97768.96
2023-09-17T11:09:50.884Z,97774.21
2023-09-17T11:12:28.094Z,97776.15
2023-09-17T11:15:04.534Z,97773.11
2023-09-17T11:17:41.429Z,97772.25
2023-09-17T11:20:22.167Z,97777.17
2023-09-17T11:22:57.968Z,97773.36
2023-09-17T11:25:49.371Z,97765.38
2023-09-17T11:28:41.952Z,97771.29
2023-09-17T11:31:20.364Z,97771.59
2023-09-17T11:33:56.331Z,97769.38
2023-09-17T11:36:30.088Z,97769.30
2023-09-17T11:39:17.799Z,97767.70
2023-09-17T11:42:05.798Z,97761.67
2023-09-17T11:44:51.551Z,97760.86
2023-09-17T11:47:28.405Z,97764.14
2023-09-17T11:50:07.575Z,97766.98
2023-09-17T11:52:44.366Z,97765.79
2023-09-17T11:55:31.915Z,97761.75
2023-09-17T12:01:44.012Z,97753.88
2023-09-17T12:04:16.652Z,97750.48
2023-09-17T12:06:52.956Z,97752.48
2023-09-17T12:10:01.641Z,97750.88
2023-09-17T12:12:35.688Z,97749.59
2023-09-17T12:15:12.095Z,97747.96
2023-09-17T12:17:50.406Z,97749.69
2023-09-17T12:20:58.447Z,97750.39
2023-09-17T12:23:58.314Z,97749.91
2023-09-17T12:27:34.510Z,97742.06
2023-09-17T12:30:12.156Z,97744.40
2023-09-17T12:32:44.336Z,97743.66
2023-09-17T12:35:15.821Z,97735.58
2023-09-17T12:37:48.831Z,97733.70
2023-09-17T12:40:23.788Z,97733.27
2023-09-17T12:42:55.352Z,97736.50
2023-09-17T12:45:30.098Z,97738.46
2023-09-17T12:48:06.154Z,97738.27
2023-09-17T12:50:43.876Z,97734.52
2023-09-17T12:53:19.845Z,97736.42
2023-09-17T12:55:52.860Z,97734.67
2023-09-17T12:58:25.079Z,97732.96
2023-09-17T13:01:08.128Z,97732.79
2023-09-17T13:03:54.024Z,97729.63
2023-09-17T13:06:29.773Z,97729.61
2023-09-17T13:09:03.376Z,97731.71
2023-09-17T13:11:35.626Z,97732.16
2023-09-17T13:14:09.624Z,97731.91
2023-09-17T13:16:45.514Z,97731.02
2023-09-17T13:19:17.429Z,97728.58
2023-09-17T13:21:50.832Z,97731.14
2023-09-17T13:24:23.384Z,97732.22
2023-09-17T13:26:55.003Z,97728.84
2023-09-17T13:29:25.285Z,97730.26
2023-09-17T13:31:55.181Z,97728.95
2023-09-17T13:34:25.173Z,97730.30
2023-09-17T13:36:57.596Z,97730.08
2023-09-17T13:39:33.757Z,97729.06
2023-09-17T13:42:04.445Z,97726.42
2023-09-17T13:44:34.583Z,97729.83
2023-09-17T13:47:05.003Z,97727.08
2023-09-17T13:49:34.825Z,97722.08
2023-09-17T13:52:05.553Z,97722.11
2023-09-17T13:54:35.432Z,97719.01
2023-09-17T13:57:05.641Z,97721.34
2023-09-17T13:59:35.617Z,97720.26
2023-09-17T14:02:06.125Z,97717.34
2023-09-17T14:04:36.256Z,97715.45
2023-09-17T14:07:06.314Z,97711.86
2023-09-17T14:09:36.098Z,97709.42
2023-09-17T14:12:09.465Z,97707.48
2023-09-17T14:14:39.206Z,97708.44
2023-09-17T14:17:11.999Z,97708.99
2023-09-17T14:19:42.935Z,97710.77
2023-09-17T14:22:15.716Z,97711.20
2023-09-17T14:24:44.452Z,97715.19
2023-09-17T14:27:14.854Z,97714.32
2023-09-17T14:29:44.951Z,97715.65
2023-09-17T14:32:14.962Z,97714.64
2023-09-17T14:34:44.753Z,97718.66
2023-09-17T14:37:14.556Z,97722.97
2023-09-17T14:39:44.449Z,97723.91
2023-09-17T14:42:14.304Z,97720.67
2023-09-17T14:44:44.111Z,97722.67
2023-09-17T14:47:14.221Z,97724.17
2023-09-17T14:49:44.580Z,97724.70
2023-09-17T14:52:14.875Z,97722.91
2023-09-17T14:54:44.672Z,97723.64
2023-09-17T14:57:14.460Z,97726.00
2023-09-17T14:59:44.420Z,97727.67
2023-09-17T15:02:14.540Z,97730.95
2023-09-17T15:04:44.427Z,97728.02
2023-09-17T15:07:14.443Z,97725.15
2023-09-17T15:09:44.250Z,97728.15
2023-09-17T15:12:14.156Z,97726.54
2023-09-17T15:14:44.101Z,97722.77
2023-09-17T15:17:14.089Z,97718.23
2023-09-17T15:19:43.967Z,97719.81
2023-09-17T15:22:14.329Z,97718.88
2023-09-17T15:24:44.188Z,97717.77
2023-09-17T15:27:17.350Z,97720.78
2023-09-17T15:29:47.096Z,97719.34
2023-09-17T15:32:16.906Z,97716.62
2023-09-17T15:34:48.232Z,97711.90
2023-09-17T15:37:18.148Z,97711.46
2023-09-17T15:39:48.084Z,97712.97
2023-09-17T15:42:17.634Z,97708.00
2023-09-17T15:44:47.504Z,97713.08
2023-09-17T15:47:17.421Z,97711.46
2023-09-17T15:49:49.136Z,97713.84
2023-09-17T15:52:19.313Z,97709.05
2023-09-17T15:54:51.693Z,97710.71
2023-09-17T15:57:21.651Z,97708.89
2023-09-17T15:59:51.462Z,97708.59
2023-09-17T16:02:22.408Z,97709.29
2023-09-17T16:04:52.128Z,97707.88
2023-09-17T16:07:23.220Z,97708.02
2023-09-17T16:09:53.844Z,97708.73
2023-09-17T16:12:23.556Z,97711.20
2023-09-17T16:14:53.511Z,97711.64
2023-09-17T16:17:27.208Z,97710.10
2023-09-17T16:19:58.755Z,97709.21
2023-09-17T16:22:28.834Z,97712.42
2023-09-17T16:24:58.605Z,97712.02
2023-09-17T16:27:28.352Z,97710.66
2023-09-17T16:29:59.509Z,97706.58
2023-09-17T16:32:32.594Z,97708.48
2023-09-17T16:35:03.176Z,97711.36
2023-09-17T16:37:32.876Z,97712.84
2023-09-17T16:40:04.051Z,97711.64
2023-09-17T16:42:33.751Z,97712.59
2023-09-17T16:45:05.517Z,97713.90
2023-09-17T16:47:43.043Z,97714.28
2023-09-17T16:50:12.931Z,97716.76
2023-09-17T16:52:44.739Z,97716.52
2023-09-17T16:55:23.421Z,97715.15
2023-09-17T16:57:53.348Z,97712.75
2023-09-17T17:00:24.606Z,97709.67
2023-09-17T17:02:55.326Z,97708.21
2023-09-17T17:05:25.884Z,97708.14
2023-09-17T17:07:55.705Z,97705.90
2023-09-17T17:10:25.429Z,97703.97
2023-09-17T17:12:55.496Z,97703.73
2023-09-17T17:15:25.470Z,97706.19
2023-09-17T17:17:56.817Z,97712.77
2023-09-17T17:20:26.594Z,97711.53
2023-09-17T17:22:56.382Z,97710.58
2023-09-17T17:25:26.854Z,97713.53
2023-09-17T17:27:57.508Z,97716.49
2023-09-17T17:30:27.431Z,97717.17
2023-09-17T17:32:57.367Z,97719.45
2023-09-17T17:35:28.224Z,97718.78
2023-09-17T17:37:59.989Z,97719.38
2023-09-17T17:40:30.455Z,97725.88
2023-09-17T17:43:00.374Z,97724.83
2023-09-17T17:45:31.427Z,97723.64
2023-09-17T17:48:01.401Z,97723.33
2023-09-17T17:50:32.820Z,97722.17
2023-09-17T17:53:02.931Z,97726.52
2023-09-17T17:55:32.909Z,97729.42
2023-09-17T17:58:04.597Z,97731.45
2023-09-17T18:00:34.416Z,97737.04
2023-09-17T18:03:04.545Z,97736.20
2023-09-17T18:05:37.988Z,97733.41
2023-09-17T18:08:08.095Z,97730.02
2023-09-17T18:10:39.002Z,97732.05
2023-09-17T18:13:09.503Z,97731.89
2023-09-17T18:15:40.486Z,97732.70
2023-09-17T18:18:12.069Z,97734.58
2023-09-17T18:20:47.839Z,97733.08
2023-09-17T18:23:18.183Z,97736.05
2023-09-17T18:25:48.333Z,97734.56
2023-09-17T18:28:18.965Z,97738.73
2023-09-17T18:30:57.165Z,97739.38
2023-09-17T18:33:32.286Z,97737.34
2023-09-17T18:36:04.534Z,97736.65
2023-09-17T18:38:34.587Z,97735.33
2023-09-17T18:41:04.412Z,97738.27
2023-09-17T18:43:34.622Z,97740.11
2023-09-17T18:46:08.085Z,97739.98
2023-09-17T18:48:40.888Z,97738.30
2023-09-17T18:51:23.762Z,97739.45
2023-09-17T18:53:55.573Z,97744.34
2023-09-17T18:56:26.029Z,97747.98
2023-09-17T18:58:58.983Z,97749.79
2023-09-17T19:01:30.552Z,97752.89
2023-09-17T19:04:01.560Z,97748.77
2023-09-17T19:06:31.453Z,97746.96
2023-09-17T19:09:01.381Z,97744.25
2023-09-17T19:11:31.197Z,97749.05
2023-09-17T19:14:01.107Z,97751.14
2023-09-17T19:16:31.423Z,97748.77
2023-09-17T19:19:01.261Z,97749.77
2023-09-17T19:21:31.168Z,97751.11
2023-09-17T19:24:01.370Z,97747.60
2023-09-17T19:26:32.628Z,97748.16
2023-09-17T19:29:05.543Z,97748.80
2023-09-17T19:31:36.284Z,97746.73
2023-09-17T19:34:06.574Z,97749.95
2023-09-17T19:36:38.073Z,97742.60
2023-09-17T19:39:09.052Z,97745.27
2023-09-17T19:41:41.023Z,97744.29
2023-09-17T19:44:13.067Z,97742.73
2023-09-17T19:46:43.468Z,97741.77
2023-09-17T19:49:14.056Z,97743.02
2023-09-17T19:51:48.030Z,97745.33
2023-09-17T19:54:18.076Z,97747.42
2023-09-17T19:56:48.429Z,97744.44
2023-09-17T19:59:18.208Z,97742.02
2023-09-17T20:01:49.384Z,97739.50
2023-09-17T20:04:19.473Z,97736.59
2023-09-17T20:06:55.032Z,97735.69
2023-09-17T20:09:26.365Z,97735.41
2023-09-17T20:11:57.157Z,97727.90
2023-09-17T20:14:27.444Z,97729.02
2023-09-17T20:16:57.293Z,97727.21
2023-09-17T20:19:27.466Z,97731.09
2023-09-17T20:21:57.556Z,97730.00
2023-09-17T20:24:27.256Z,97727.98
2023-09-17T20:26:57.006Z,97727.56
2023-09-17T20:29:27.141Z,97725.30
2023-09-17T20:31:57.627Z,97725.19
2023-09-17T20:34:27.485Z,97721.75
2023-09-17T20:36:57.301Z,97721.15
2023-09-17T20:39:27.185Z,97723.96
2023-09-17T20:41:57.147Z,97721.63
2023-09-17T20:44:28.124Z,97723.30
2023-09-17T20:47:00.255Z,97721.44
2023-09-17T20:49:30.645Z,97722.45
2023-09-17T20:52:00.447Z,97721.34
2023-09-17T20:54:30.374Z,97723.81
2023-09-17T20:57:00.211Z,97722.83
2023-09-17T20:59:30.037Z,97716.17
2023-09-17T21:02:01.304Z,97713.52
2023-09-17T21:04:31.857Z,97712.02
2023-09-17T21:07:01.624Z,97711.63
2023-09-17T21:09:41.731Z,97711.54
2023-09-17T21:12:11.675Z,97710.09
2023-09-17T21:14:41.558Z,97708.21
2023-09-17T21:17:11.783Z,97709.02
2023-09-17T21:19:43.785Z,97707.49
2023-09-17T21:22:13.798Z,97707.70
2023-09-17T21:24:43.865Z,97709.27
2023-09-17T21:27:13.931Z,97708.48
2023-09-17T21:29:46.475Z,97707.14
2023-09-17T21:32:16.484Z,97703.23
2023-09-17T21:34:46.609Z,97701.80
2023-09-17T21:37:16.604Z,97701.57
2023-09-17T21:39:46.409Z,97699.59
2023-09-17T21:42:16.214Z,97701.77
2023-09-17T21:44:46.080Z,97700.88
2023-09-17T21:47:16.780Z,97702.52
2023-09-17T21:49:46.694Z,97697.80
2023-09-17T21:52:16.549Z,97697.32
2023-09-17T21:54:47.018Z,97694.14
2023-09-17T21:57:20.405Z,97692.20
2023-09-17T21:59:50.777Z,97692.76
2023-09-17T22:02:22.211Z,97691.60
2023-09-17T22:04:55.107Z,97687.05
2023-09-17T22:07:24.778Z,97679.92
2023-09-17T22:09:56.176Z,97681.91
2023-09-17T22:12:26.425Z,97679.21
2023-09-17T22:14:56.183Z,97675.88
2023-09-17T22:17:27.272Z,97676.23
2023-09-17T22:19:57.231Z,97670.46
2023-09-17T22:22:27.342Z,97671.88
2023-09-17T22:24:58.086Z,97672.44
2023-09-17T22:27:28.111Z,97675.54
2023-09-17T22:29:58.377Z,97672.86
2023-09-17T22:32:29.054Z,97670.64
2023-09-17T22:34:59.094Z,97672.05
2023-09-17T22:37:29.522Z,97676.46
2023-09-17T22:39:59.240Z,97674.22
2023-09-17T22:42:28.901Z,97671.14
2023-09-17T22:44:58.717Z,97669.85
2023-09-17T22:47:33.696Z,97669.70
2023-09-17T22:50:06.037Z,97671.41
2023-09-17T22:52:35.956Z,97670.77
2023-09-17T22:55:06.875Z,97665.59
2023-09-17T22:57:41.152Z,97662.48
2023-09-17T23:00:14.617Z,97661.07
2023-09-17T23:02:46.314Z,97667.95
2023-09-17T23:05:18.044Z,97666.30
2023-09-17T23:07:49.890Z,97666.56
2023-09-17T23:10:20.004Z,97660.29
2023-09-17T23:12:49.705Z,97661.10
2023-09-17T23:15:20.209Z,97663.01
2023-09-17T23:17:49.902Z,97661.79
2023-09-17T23:20:20.206Z,97660.87
2023-09-17T23:22:51.671Z,97665.23
2023-09-17T23:25:22.581Z,97660.05
2023-09-17T23:27:52.515Z,97660.61
2023-09-17T23:30:22.650Z,97657.41
2023-09-17T23:32:52.514Z,97658.85
2023-09-17T23:35:23.874Z,97661.24
2023-09-17T23:37:53.932Z,97667.16
2023-09-17T23:40:25.294Z,97661.40
2023-09-17T23:42:55.444Z,97657.84
2023-09-17T23:45:25.066Z,97656.44
2023-09-17T23:47:54.961Z,97660.02
2023-09-17T23:50:24.659Z,97663.39
2023-09-17T23:52:54.554Z,97664.10
2023-09-17T23:55:24.627Z,97660.21
2023-09-17T23:57:54.233Z,97658.05
